Time;durP1;ratioP1;P1;durP2;ratioP2;P2;SDS_P1;SDS_P2;PMS_P1;PMS_P2;Temp;Humidity;BMP_temperature;BMP_pressure;BME280_temperature;BME280_humidity;BME280_pressure;Samples;Min_cycle;Max_cycle;Signal;HPM_P1;HPM_P2
2021/04/26 00:00:15;;;;;;;31.20;14.40;;;;;;;4.73;65.22;100477.36;1789548;78;21415;-89
2021/04/26 00:02:42;;;;;;;28.75;13.88;;;;;;;4.61;65.73;100476.45;1790574;78;21229;-89
2021/04/26 00:05:10;;;;;;;30.35;13.85;;;;;;;4.56;65.95;100481.66;1781041;78;21595;-89
2021/04/26 00:07:37;;;;;;;34.90;14.55;;;;;;;4.52;66.26;100487.56;1793434;78;21066;-91
2021/04/26 00:10:06;;;;;;;32.48;14.28;;;;;;;4.47;66.53;100487.06;1789348;78;21038;-89
2021/04/26 00:12:32;;;;;;;32.63;15.03;;;;;;;4.29;67.25;100497.87;1790393;78;21665;-89
2021/04/26 00:14:58;;;;;;;36.53;15.27;;;;;;;4.16;67.51;100502.27;1789297;78;21510;-93
2021/04/26 00:17:29;;;;;;;29.07;12.70;;;;;;;3.87;68.28;100507.73;1787225;78;21102;-94
2021/04/26 00:19:55;;;;;;;30.80;13.68;;;;;;;3.81;68.32;100508.15;1789164;78;21154;-93
2021/04/26 00:22:24;;;;;;;33.37;14.73;;;;;;;3.79;68.38;100511.31;1791284;78;23277;-93
2021/04/26 00:24:50;;;;;;;32.67;15.25;;;;;;;3.67;68.59;100513.47;1790409;78;21210;-91
2021/04/26 00:27:16;;;;;;;36.10;15.80;;;;;;;3.69;68.68;100516.81;1774876;79;21160;-91
2021/04/26 00:29:42;;;;;;;37.23;15.10;;;;;;;3.87;67.97;100518.19;1790527;78;21470;-93
2021/04/26 00:32:13;;;;;;;35.47;15.53;;;;;;;3.89;67.79;100513.68;1788319;78;23883;-92
2021/04/26 00:34:39;;;;;;;37.40;16.05;;;;;;;3.85;68.26;100513.99;1775160;78;21181;-93
2021/04/26 00:37:06;;;;;;;33.13;14.67;;;;;;;3.75;68.91;100512.00;1786944;78;20982;-89
2021/04/26 00:39:32;;;;;;;;;;;;;;;4.02;68.34;100511.06;1793518;78;21169;-91
2021/04/26 00:41:57;;;;;;;38.33;15.58;;;;;;;4.16;67.89;100508.80;1791524;78;20237;-90
2021/04/26 00:44:25;;;;;;;38.43;15.07;;;;;;;4.32;67.64;100509.91;1790778;78;22962;-93
2021/04/26 00:46:52;;;;;;;;;;;;;;;4.42;66.79;100512.70;1793941;78;21129;-90
2021/04/26 00:49:21;;;;;;;31.40;13.18;;;;;;;4.43;66.96;100506.55;1797007;78;21401;-90
2021/04/26 00:51:51;;;;;;;33.85;14.73;;;;;;;4.44;66.75;100492.05;1794206;78;21079;-90
2021/04/26 00:54:17;;;;;;;34.38;14.95;;;;;;;4.57;66.09;100489.41;1780866;78;21059;-90
2021/04/26 00:56:45;;;;;;;40.07;15.90;;;;;;;4.56;66.22;100484.28;1794976;78;24810;-91
2021/04/26 00:59:11;;;;;;;40.65;17.07;;;;;;;4.58;66.44;100479.28;1792194;78;21142;-89
2021/04/26 01:01:37;;;;;;;41.33;17.03;;;;;;;4.61;66.19;100479.06;1799284;77;21207;-91
2021/04/26 01:04:04;;;;;;;40.03;17.55;;;;;;;4.65;66.25;100479.70;1793440;77;21062;-91
2021/04/26 01:06:34;;;;;;;38.13;17.73;;;;;;;4.68;66.12;100480.30;1790968;77;21073;-91
2021/04/26 01:09:00;;;;;;;35.50;17.80;;;;;;;4.72;65.89;100481.39;1796463;78;21116;-90
2021/04/26 01:11:49;;;;;;;34.57;16.87;;;;;;;4.77;65.65;100473.59;1795861;78;22297;-91
2021/04/26 01:14:28;;;;;;;36.45;17.25;;;;;;;4.73;65.85;100472.61;1793830;78;21625;-92
2021/04/26 01:17:17;;;;;;;39.80;16.93;;;;;;;4.73;66.12;100477.84;1790735;78;21212;-91
2021/04/26 01:20:38;;;;;;;36.83;16.70;;;;;;;4.76;65.94;100480.23;1790051;78;21070;-92
2021/04/26 01:23:42;;;;;;;40.03;17.12;;;;;;;4.56;66.73;100479.05;1792436;78;21170;-91
2021/04/26 01:26:12;;;;;;;37.67;17.02;;;;;;;4.54;66.69;100483.08;1797296;77;21097;-92
2021/04/26 01:28:50;;;;;;;39.75;17.48;;;;;;;4.50;66.52;100480.30;1794813;77;21195;-91
2021/04/26 01:31:26;;;;;;;36.23;17.48;;;;;;;4.43;66.65;100485.63;1777287;79;21122;-91
2021/04/26 01:33:53;;;;;;;39.30;17.65;;;;;;;4.39;66.69;100480.23;1793652;78;21005;-91
2021/04/26 01:36:22;;;;;;;37.58;17.20;;;;;;;4.29;66.93;100482.19;1796496;78;21090;-91
2021/04/26 01:38:50;;;;;;;44.65;18.02;;;;;;;4.25;67.45;100481.20;1771261;77;21414;-91
2021/04/26 01:41:15;;;;;;;;;;;;;;;4.34;66.79;100478.42;1800175;78;21235;-92
2021/04/26 01:43:42;;;;;;;41.20;17.07;;;;;;;4.26;67.16;100477.17;1797911;78;20202;-91
2021/04/26 01:46:13;;;;;;;38.00;17.37;;;;;;;4.27;67.12;100472.33;1795564;78;21041;-92
2021/04/26 01:48:42;;;;;;;42.62;18.02;;;;;;;4.28;66.97;100475.77;1795682;78;21180;-92
2021/04/26 01:51:10;;;;;;;38.85;17.82;;;;;;;4.25;67.31;100470.27;1793126;78;20923;-92
2021/04/26 01:53:37;;;;;;;40.88;18.70;;;;;;;4.26;67.13;100471.13;1793616;78;21936;-92
2021/04/26 01:56:05;;;;;;;;;;;;;;;4.06;67.74;100462.88;1794006;78;21036;-93
2021/04/26 01:58:33;;;;;;;41.48;17.02;;;;;;;4.08;67.99;100468.00;1790558;78;20617;-92
2021/04/26 02:01:02;;;;;;;;;;;;;;;3.76;69.16;100463.23;1793682;78;21032;-93
2021/04/26 02:03:28;;;;;;;42.03;17.30;;;;;;;3.81;69.17;100468.11;1789809;78;20461;-93
2021/04/26 02:06:01;;;;;;;39.10;17.37;;;;;;;3.98;68.69;100468.26;1790326;78;21858;-93
2021/04/26 02:08:26;;;;;;;46.53;19.85;;;;;;;3.90;68.65;100461.80;1787035;79;21094;-92
2021/04/26 02:10:52;;;;;;;41.07;18.07;;;;;;;3.76;69.53;100455.39;1791210;78;20951;-93
2021/04/26 02:13:23;;;;;;;45.83;20.90;;;;;;;3.59;70.18;100463.89;1789675;78;22021;-91
2021/04/26 02:15:52;;;;;;;44.25;19.50;;;;;;;3.52;70.39;100462.61;1789732;78;21172;-93
2021/04/26 02:18:19;;;;;;;43.80;20.02;;;;;;;3.33;71.10;100460.89;1767839;79;22025;-92
2021/04/26 02:20:47;;;;;;;39.83;18.82;;;;;;;3.18;71.66;100463.55;1792658;78;21140;-93
2021/04/26 02:23:23;;;;;;;39.75;15.98;;;;;;;3.05;72.16;100458.30;1791702;78;21042;-92
2021/04/26 02:25:54;;;;;;;45.15;18.23;;;;;;;3.05;72.13;100457.48;1788010;78;21145;-91
2021/04/26 02:28:21;;;;;;;38.85;17.55;;;;;;;3.20;71.63;100460.84;1788847;78;21177;-92
2021/04/26 02:30:53;;;;;;;40.10;17.60;;;;;;;3.17;71.60;100451.45;1773178;78;21203;-92
2021/04/26 02:33:29;;;;;;;38.73;17.35;;;;;;;3.21;71.60;100479.48;1789907;78;21654;-92
2021/04/26 02:36:08;;;;;;;39.10;17.55;;;;;;;2.95;71.95;100436.83;1788966;78;21231;-92
2021/04/26 02:38:44;;;;;;;36.28;15.10;;;;;;;2.98;72.48;100451.84;1791056;78;21176;-92
2021/04/26 02:41:14;;;;;;;35.80;16.80;;;;;;;3.11;71.68;100441.42;1796954;78;21179;-91
2021/04/26 02:43:48;;;;;;;33.67;14.85;;;;;;;3.17;71.83;100451.45;1761987;78;22701;-91
2021/04/26 02:46:21;;;;;;;35.58;16.15;;;;;;;3.20;71.83;100456.92;1761671;80;21217;-91
2021/04/26 02:48:47;;;;;;;33.48;16.00;;;;;;;2.99;72.39;100435.23;1785448;78;20979;-92
2021/04/26 02:51:15;;;;;;;35.40;15.30;;;;;;;3.13;72.03;100460.41;1788051;78;21010;-92
2021/04/26 02:53:47;;;;;;;36.80;16.23;;;;;;;3.18;72.04;100459.63;1788588;78;21192;-94
2021/04/26 02:56:14;;;;;;;36.90;15.40;;;;;;;3.12;72.51;100460.03;1781945;80;21975;-93
2021/04/26 02:58:46;;;;;;;39.42;15.90;;;;;;;3.04;72.63;100455.80;1752696;80;21236;-92
2021/04/26 03:01:16;;;;;;;35.15;15.90;;;;;;;3.18;72.26;100454.41;1780096;80;21209;-94
2021/04/26 03:03:45;;;;;;;34.53;15.15;;;;;;;3.15;72.44;100453.31;1781801;79;21189;-93
2021/04/26 03:06:15;;;;;;;35.20;15.60;;;;;;;3.02;72.94;100450.67;1770786;79;21194;-93
2021/04/26 03:08:41;;;;;;;34.55;14.60;;;;;;;3.14;72.45;100449.05;1754933;80;21573;-93
2021/04/26 03:11:10;;;;;;;35.57;15.53;;;;;;;3.22;72.17;100449.38;1777407;80;21057;-93
2021/04/26 03:13:36;;;;;;;36.93;14.25;;;;;;;3.14;72.80;100448.19;1779731;80;21288;-95
2021/04/26 03:16:05;;;;;;;34.40;15.98;;;;;;;3.18;72.41;100458.33;1749905;80;21179;-94
2021/04/26 03:18:34;;;;;;;32.45;14.78;;;;;;;3.16;72.53;100460.21;1783081;79;21237;-92
2021/04/26 03:21:03;;;;;;;34.60;14.80;;;;;;;3.26;72.55;100450.47;1774302;79;21141;-91
2021/04/26 03:23:30;;;;;;;31.62;14.38;;;;;;;3.34;71.75;100449.48;1781431;80;21085;-92
2021/04/26 03:26:03;;;;;;;33.00;14.93;;;;;;;3.50;71.57;100448.84;1779892;80;21208;-91
2021/04/26 03:28:31;;;;;;;31.20;14.13;;;;;;;3.51;71.17;100455.74;1779198;80;21173;-91
2021/04/26 03:30:58;;;;;;;29.72;13.08;;;;;;;3.58;70.96;100445.23;1772328;80;21177;-92
2021/04/26 03:33:24;;;;;;;28.70;13.60;;;;;;;3.51;70.89;100445.30;1748691;80;21233;-90
2021/04/26 03:35:49;;;;;;;32.63;13.60;;;;;;;3.36;71.52;100454.98;1781566;80;20962;-91
2021/04/26 03:38:18;;;;;;;28.13;13.10;;;;;;;3.33;71.67;100446.53;1746825;80;21010;-91
2021/04/26 03:40:43;;;;;;;32.40;13.75;;;;;;;3.51;70.96;100452.27;1784447;79;21212;-91
2021/04/26 03:43:11;;;;;;;28.27;13.17;;;;;;;3.56;70.69;100449.73;1773672;80;22339;-91
2021/04/26 03:45:38;;;;;;;29.42;12.68;;;;;;;3.57;70.55;100447.50;1778476;79;21446;-88
2021/04/26 03:48:07;;;;;;;28.23;12.47;;;;;;;3.65;70.22;100443.51;1739150;80;25740;-88
2021/04/26 03:50:33;;;;;;;29.60;12.33;;;;;;;3.67;70.18;100442.95;1756475;80;21230;-88
2021/04/26 03:53:01;;;;;;;25.87;11.93;;;;;;;3.67;70.18;100442.95;1783286;79;21192;-89
2021/04/26 03:55:26;;;;;;;26.00;11.53;;;;;;;3.76;69.69;100444.46;1794508;78;21351;-89
2021/04/26 03:57:54;;;;;;;26.23;12.23;;;;;;;3.65;70.01;100444.81;1800072;78;21099;-89
2021/04/26 04:00:24;;;;;;;28.57;12.20;;;;;;;3.67;69.81;100445.57;1789882;78;21180;-89
2021/04/26 04:02:53;;;;;;;28.17;11.90;;;;;;;3.55;70.36;100439.39;1799197;78;21184;-89
2021/04/26 04:05:19;;;;;;;;;;;;;;;3.55;70.22;100432.86;1798852;78;21743;-88
2021/04/26 04:07:45;;;;;;;34.27;12.13;;;;;;;3.59;70.14;100443.00;1802643;78;20277;-89
2021/04/26 04:10:13;;;;;;;24.33;11.13;;;;;;;3.58;70.31;100452.23;1795555;78;21267;-89
2021/04/26 04:12:42;;;;;;;24.75;10.72;;;;;;;3.71;69.80;100446.56;1805696;78;21616;-90
2021/04/26 04:15:12;;;;;;;27.45;11.70;;;;;;;3.76;69.80;100447.55;1782476;78;21181;-92
2021/04/26 04:17:40;;;;;;;26.93;11.78;;;;;;;3.73;69.81;100447.77;1792140;78;21611;-91
2021/04/26 04:20:09;;;;;;;30.17;12.07;;;;;;;3.86;69.08;100453.80;1797126;78;21216;-91
2021/04/26 04:22:35;;;;;;;24.35;10.63;;;;;;;3.86;69.08;100453.80;1796098;78;21165;-90
2021/04/26 04:25:05;;;;;;;22.93;10.40;;;;;;;3.94;68.87;100450.66;1802003;78;21104;-91
2021/04/26 04:27:32;;;;;;;22.65;11.10;;;;;;;4.07;68.34;100451.95;1799398;78;21211;-91
2021/04/26 04:30:18;;;;;;;22.05;9.65;;;;;;;3.98;68.21;100456.50;1797525;78;21189;-93
2021/04/26 04:32:39;;;;;;;24.60;9.93;;;;;;;4.13;67.90;100451.07;1794146;78;21222;-91
2021/04/26 04:35:07;;;;;;;19.42;9.68;;;;;;;4.18;67.63;100461.20;1774971;78;21932;-91
2021/04/26 04:37:33;;;;;;;19.42;9.60;;;;;;;4.21;67.51;100460.98;1800179;78;21608;-91
2021/04/26 04:40:03;;;;;;;21.90;8.67;;;;;;;4.19;67.29;100460.23;1792564;78;21176;-92
2021/04/26 04:42:29;;;;;;;20.37;8.80;;;;;;;4.34;66.93;100456.20;1800059;78;21380;-91
2021/04/26 04:44:54;;;;;;;21.60;9.40;;;;;;;4.55;66.54;100459.88;1775541;78;23313;-91
2021/04/26 04:47:20;;;;;;;17.40;8.53;;;;;;;4.71;66.08;100462.70;1798984;78;21450;-91
2021/04/26 04:49:46;;;;;;;18.87;8.17;;;;;;;4.91;65.57;100470.42;1747762;78;21149;-91
2021/04/26 04:52:12;;;;;;;21.37;8.83;;;;;;;4.90;64.83;100481.37;1797433;78;21137;-91
2021/04/26 04:54:40;;;;;;;19.97;9.53;;;;;;;4.99;64.66;100476.78;1794179;78;25394;-92
2021/04/26 04:57:07;;;;;;;19.67;9.98;;;;;;;4.80;65.22;100481.67;1800657;78;21201;-91
2021/04/26 04:59:37;;;;;;;19.80;10.25;;;;;;;4.73;65.43;100483.90;1804245;78;22477;-91
2021/04/26 05:02:02;;;;;;;19.73;9.38;;;;;;;4.88;65.36;100482.42;1801464;78;21183;-92
2021/04/26 05:04:29;;;;;;;20.53;8.40;;;;;;;4.87;65.02;100477.67;1802976;78;20974;-90
2021/04/26 05:06:55;;;;;;;17.70;8.40;;;;;;;4.74;65.09;100486.03;1816264;78;20993;-90
2021/04/26 05:09:23;;;;;;;15.80;7.67;;;;;;;4.45;65.19;100481.94;1811174;78;21698;-92
2021/04/26 05:11:48;;;;;;;;;;;;;;;4.64;64.71;100483.25;1804899;78;21215;-89
2021/04/26 05:14:14;;;;;;;20.13;6.97;;;;;;;4.47;65.07;100484.00;1805840;78;20738;-89
2021/04/26 05:16:44;;;;;;;16.40;6.97;;;;;;;4.51;64.82;100488.53;1798147;78;21663;-89
2021/04/26 05:19:12;;;;;;;13.58;7.12;;;;;;;4.48;64.89;100488.74;1810765;78;21733;-94
2021/04/26 05:21:38;;;;;;;16.77;6.97;;;;;;;4.47;65.16;100487.06;1804607;78;26119;-90
2021/04/26 05:24:06;;;;;;;18.47;7.57;;;;;;;4.49;65.31;100481.27;1800932;78;22215;-93
2021/04/26 05:26:32;;;;;;;17.95;7.10;;;;;;;4.56;65.32;100486.89;1803390;78;21190;-92
2021/04/26 05:29:02;;;;;;;15.87;7.03;;;;;;;4.59;64.92;100486.67;1801978;78;20919;-91
2021/04/26 05:31:32;;;;;;;17.32;6.95;;;;;;;4.75;64.44;100485.09;1803886;78;21207;-90
2021/04/26 05:33:58;;;;;;;18.20;7.20;;;;;;;4.73;64.55;100484.38;1803162;78;21132;-89
2021/04/26 05:36:24;;;;;;;14.57;6.40;;;;;;;4.96;64.00;100486.16;1799605;78;21080;-91
2021/04/26 05:38:50;;;;;;;17.00;6.50;;;;;;;5.00;63.57;100488.94;1801367;78;22325;-90
2021/04/26 05:41:17;;;;;;;13.33;5.63;;;;;;;5.31;62.72;100484.03;1798039;78;20962;-91
2021/04/26 05:43:47;;;;;;;;;;;;;;;5.50;61.06;100483.97;1813167;78;21657;-90
2021/04/26 05:46:22;;;;;;;10.48;4.60;;;;;;;5.56;59.62;100483.52;1801849;78;20232;-92
2021/04/26 05:48:48;;;;;;;9.23;4.83;;;;;;;5.66;58.69;100488.42;1805418;78;21199;-89
2021/04/26 05:51:19;;;;;;;10.85;5.03;;;;;;;5.74;58.52;100488.67;1800266;78;21116;-90
2021/04/26 05:53:45;;;;;;;11.03;5.30;;;;;;;5.94;58.36;100479.77;1796756;78;21155;-92
2021/04/26 05:56:11;;;;;;;11.80;5.00;;;;;;;5.99;57.10;100484.20;1791395;78;29344;-90
2021/04/26 05:58:39;;;;;;;8.68;4.58;;;;;;;6.06;57.00;100488.03;1790646;78;26501;-90
2021/04/26 06:01:05;;;;;;;9.38;4.47;;;;;;;6.05;56.28;100492.91;1788733;78;21176;-91
2021/04/26 06:03:31;;;;;;;8.00;4.20;;;;;;;6.13;55.89;100490.19;1790339;78;21202;-88
2021/04/26 06:05:58;;;;;;;8.80;4.03;;;;;;;6.21;55.77;100492.55;1790786;78;21429;-87
2021/04/26 06:08:27;;;;;;;8.25;4.28;;;;;;;6.28;55.09;100492.92;1795190;78;21152;-87
2021/04/26 06:10:54;;;;;;;8.45;4.25;;;;;;;6.39;55.15;100490.29;1792493;78;21208;-88
2021/04/26 06:13:22;;;;;;;6.50;3.70;;;;;;;6.43;53.98;100494.80;1788923;78;21212;-88
2021/04/26 06:15:55;;;;;;;7.35;3.35;;;;;;;6.37;54.26;100493.97;1791539;78;21440;-87
2021/04/26 06:18:22;;;;;;;8.30;3.35;;;;;;;6.31;54.26;100499.24;1790238;78;21229;-90
2021/04/26 06:20:49;;;;;;;7.53;3.42;;;;;;;6.20;54.04;100503.16;1788433;78;21196;-91
2021/04/26 06:23:18;;;;;;;7.50;3.25;;;;;;;6.45;54.41;100503.41;1790376;78;21186;-88
2021/04/26 06:25:48;;;;;;;7.78;3.30;;;;;;;6.59;53.82;100501.01;1783447;78;21157;-91
2021/04/26 06:28:15;;;;;;;6.35;3.10;;;;;;;6.62;53.32;100500.77;1788488;78;21206;-91
2021/04/26 06:30:42;;;;;;;7.90;3.37;;;;;;;6.86;53.30;100505.00;1786614;78;21182;-91
2021/04/26 06:33:14;;;;;;;6.78;2.83;;;;;;;6.55;53.29;100504.82;1792935;78;21250;-88
2021/04/26 06:35:37;;;;;;;8.43;3.30;;;;;;;6.61;53.44;100500.40;1790641;78;21215;-86
2021/04/26 06:38:04;;;;;;;7.70;2.47;;;;;;;6.47;53.29;100508.05;1792985;78;21490;-86
2021/04/26 06:40:30;;;;;;;5.25;2.60;;;;;;;6.75;52.82;100498.81;1770105;78;21181;-90
2021/04/26 06:43:01;;;;;;;6.13;3.07;;;;;;;6.75;52.60;100506.69;1798585;78;21036;-92
2021/04/26 06:45:27;;;;;;;6.50;2.60;;;;;;;6.68;52.92;100508.16;1793906;78;21720;-88
2021/04/26 06:47:53;;;;;;;4.67;2.58;;;;;;;6.74;52.11;100504.19;1789981;78;27112;-89
2021/04/26 06:50:21;;;;;;;5.05;2.40;;;;;;;6.33;52.34;100513.55;1785655;78;21383;-91
2021/04/26 06:52:48;;;;;;;6.90;2.70;;;;;;;6.29;51.83;100511.63;1787577;78;21189;-90
2021/04/26 06:55:14;;;;;;;4.80;2.30;;;;;;;6.34;51.74;100509.50;1784357;78;21187;-89
2021/04/26 06:57:40;;;;;;;5.97;2.95;;;;;;;6.32;51.40;100513.19;1790918;78;21618;-89
2021/04/26 07:00:10;;;;;;;8.35;2.80;;;;;;;6.38;51.27;100522.71;1792628;78;21185;-92
2021/04/26 07:02:38;;;;;;;8.38;2.92;;;;;;;6.42;51.39;100518.91;1789490;78;22390;-89
2021/04/26 07:05:06;;;;;;;7.40;3.43;;;;;;;6.46;51.58;100516.86;1788392;78;26497;-91
2021/04/26 07:07:32;;;;;;;14.03;3.00;;;;;;;6.32;51.81;100521.87;1792273;78;21207;-90
2021/04/26 07:10:05;;;;;;;6.05;2.90;;;;;;;6.26;51.86;100517.11;1790338;78;28507;-89
2021/04/26 07:12:32;;;;;;;4.72;2.70;;;;;;;6.49;51.72;100517.94;1788872;78;21148;-91
2021/04/26 07:14:58;;;;;;;5.67;2.30;;;;;;;6.76;51.54;100510.17;1792113;78;21168;-90
2021/04/26 07:17:24;;;;;;;4.63;2.20;;;;;;;6.79;50.56;100510.75;1790171;78;26222;-89
2021/04/26 07:19:52;;;;;;;4.87;2.03;;;;;;;6.65;49.64;100508.40;1797111;78;21056;-88
2021/04/26 07:22:18;;;;;;;4.05;1.70;;;;;;;6.69;47.66;100520.30;1791426;78;21160;-84
2021/04/26 07:24:46;;;;;;;3.37;1.60;;;;;;;6.64;46.71;100519.84;1792434;78;26913;-90
2021/04/26 07:27:15;;;;;;;;;;;;;;;6.69;46.13;100517.67;1796381;78;21215;-90
2021/04/26 07:29:45;;;;;;;3.02;1.40;;;;;;;6.54;45.14;100520.20;1792531;78;20196;-89
2021/04/26 07:32:10;;;;;;;5.45;1.40;;;;;;;6.78;45.23;100506.44;1795046;78;21144;-91
2021/04/26 07:34:38;;;;;;;2.72;1.50;;;;;;;6.79;46.20;100506.81;1789213;78;28402;-91
2021/04/26 07:37:04;;;;;;;;;;;;;;;7.12;45.88;100495.84;1797565;78;21183;-92
2021/04/26 07:39:31;;;;;;;3.35;1.47;;;;;;;7.12;44.26;100506.34;1791169;78;20956;-90
2021/04/26 07:41:59;;;;;;;2.70;1.20;;;;;;;7.24;44.80;100504.98;1790330;78;21187;-91
2021/04/26 07:44:27;;;;;;;2.95;1.30;;;;;;;7.27;45.32;100504.27;1797272;78;21160;-89
2021/04/26 07:46:55;;;;;;;3.75;1.40;;;;;;;7.25;44.33;100515.86;1789408;78;21113;-89
2021/04/26 07:49:21;;;;;;;3.30;1.20;;;;;;;7.36;44.26;100501.35;1793632;78;21140;-90
2021/04/26 07:51:48;;;;;;;10.93;6.53;;;;;;;7.17;44.59;100514.67;1793775;78;21743;-91
2021/04/26 07:54:14;;;;;;;3.60;2.15;;;;;;;7.38;44.62;100500.77;1791513;78;21184;-90
2021/04/26 07:56:40;;;;;;;3.02;1.50;;;;;;;7.52;43.23;100505.70;1790111;78;21564;-92
2021/04/26 07:59:06;;;;;;;2.25;1.50;;;;;;;7.61;43.30;100504.08;1795670;78;28342;-87
2021/04/26 08:01:40;;;;;;;5.60;2.17;;;;;;;7.53;44.44;100504.72;1797841;78;26719;-94
2021/04/26 08:04:07;;;;;;;3.77;1.70;;;;;;;7.23;45.16;100507.28;1791523;78;21141;-92
2021/04/26 08:06:36;;;;;;;4.33;1.60;;;;;;;7.18;46.37;100500.59;1793988;78;21050;-92
2021/04/26 08:09:03;;;;;;;2.52;1.37;;;;;;;6.90;46.26;100503.78;1752109;78;21164;-90
2021/04/26 08:11:29;;;;;;;2.75;1.40;;;;;;;6.91;45.37;100505.45;1794406;78;21026;-91
2021/04/26 08:13:55;;;;;;;2.47;1.50;;;;;;;7.06;45.05;100498.14;1795524;78;21120;-88
2021/04/26 08:16:24;;;;;;;5.00;1.40;;;;;;;7.19;43.89;100502.73;1793940;78;21571;-90
2021/04/26 08:18:55;;;;;;;2.35;1.30;;;;;;;7.15;43.70;100506.09;1792093;78;21172;-88
2021/04/26 08:21:23;;;;;;;3.37;1.35;;;;;;;7.01;43.61;100505.91;1792903;78;21029;-89
2021/04/26 08:23:56;;;;;;;2.33;1.02;;;;;;;6.98;42.41;100522.39;1791828;78;21558;-92
2021/04/26 08:26:25;;;;;;;2.02;1.20;;;;;;;6.64;41.31;100517.22;1797941;78;21054;-88
2021/04/26 08:28:56;;;;;;;2.47;1.17;;;;;;;6.90;41.68;100499.84;1791388;78;21133;-89
2021/04/26 08:31:22;;;;;;;3.22;1.35;;;;;;;7.06;41.49;100502.91;1793670;78;21581;-91
2021/04/26 08:33:52;;;;;;;5.55;1.67;;;;;;;7.24;41.59;100502.36;1793215;78;21190;-89
2021/04/26 08:36:18;;;;;;;3.62;1.77;;;;;;;7.33;41.29;100507.71;1780134;79;21194;-88
2021/04/26 08:38:47;;;;;;;2.30;1.27;;;;;;;7.28;41.69;100506.41;1795249;78;26767;-91
2021/04/26 08:41:17;;;;;;;2.80;1.17;;;;;;;7.27;41.74;100500.79;1792497;78;21156;-90
2021/04/26 08:43:47;;;;;;;2.95;1.40;;;;;;;7.21;42.39;100493.41;1790942;78;21220;-90
2021/04/26 08:46:14;;;;;;;2.33;1.15;;;;;;;7.57;42.14;100492.64;1794444;78;21079;-90
2021/04/26 08:48:41;;;;;;;2.60;1.42;;;;;;;7.75;41.44;100487.16;1792096;78;21177;-88
2021/04/26 08:51:19;;;;;;;3.10;1.40;;;;;;;7.61;41.35;100487.48;1786294;78;21279;-94
2021/04/26 08:53:49;;;;;;;2.98;1.30;;;;;;;7.63;41.29;100485.55;1790640;78;21176;-93
2021/04/26 08:56:19;;;;;;;3.15;1.05;;;;;;;7.87;40.18;100478.23;1774598;80;21148;-89
2021/04/26 08:58:47;;;;;;;3.75;1.40;;;;;;;8.03;39.95;100476.92;1790437;78;21070;-87
2021/04/26 09:01:18;;;;;;;1.95;1.12;;;;;;;7.97;39.81;100480.07;1787536;78;21125;-92
2021/04/26 09:03:49;;;;;;;3.67;1.62;;;;;;;7.96;39.67;100468.73;1791049;78;21210;-93
2021/04/26 09:06:22;;;;;;;3.60;1.40;;;;;;;8.04;40.42;100470.70;1790087;78;22150;-88
2021/04/26 09:08:53;;;;;;;2.30;1.12;;;;;;;8.20;41.71;100476.32;1790946;78;21053;-91
2021/04/26 09:11:22;;;;;;;2.98;1.32;;;;;;;8.13;42.43;100472.55;1743497;79;21482;-91
2021/04/26 09:13:52;;;;;;;2.52;1.30;;;;;;;8.04;41.74;100475.97;1789408;78;21178;-92
2021/04/26 09:16:31;;;;;;;3.52;1.25;;;;;;;7.79;39.32;100478.05;1781682;78;21006;-91
2021/04/26 09:19:08;;;;;;;3.80;1.10;;;;;;;8.09;39.48;100476.39;1793229;77;21026;-91
2021/04/26 09:21:38;;;;;;;3.55;1.25;;;;;;;8.00;37.12;100470.61;1792820;78;21071;-89
2021/04/26 09:24:26;;;;;;;2.12;1.17;;;;;;;7.65;35.89;100484.97;1796457;78;21010;-90
2021/04/26 09:27:13;;;;;;;1.50;1.00;;;;;;;7.81;35.70;100480.06;1772732;78;21722;-89
2021/04/26 09:29:41;;;;;;;2.52;1.30;;;;;;;7.87;34.62;100459.82;1779010;79;21583;-87
2021/04/26 09:32:18;;;;;;;1.92;0.80;;;;;;;8.00;35.10;100472.77;1783821;78;21825;-86
2021/04/26 09:34:55;;;;;;;2.98;1.20;;;;;;;8.09;35.26;100467.19;1790370;78;21057;-90
2021/04/26 09:37:27;;;;;;;3.58;1.17;;;;;;;8.14;36.90;100466.33;1790577;78;21673;-92
2021/04/26 09:40:12;;;;;;;2.10;1.30;;;;;;;8.19;37.62;100472.02;1789519;78;21144;-93
2021/04/26 09:42:54;;;;;;;4.25;1.52;;;;;;;8.31;38.04;100469.27;1787639;78;21727;-89
2021/04/26 09:45:29;;;;;;;2.65;1.02;;;;;;;8.39;37.71;100458.91;1791650;78;21252;-86
2021/04/26 09:48:19;;;;;;;3.00;1.22;;;;;;;8.36;37.24;100465.29;1757470;80;21632;-84
2021/04/26 09:50:56;;;;;;;3.00;1.00;;;;;;;8.26;36.39;100453.42;1749747;80;21192;-86
2021/04/26 09:53:27;;;;;;;3.12;1.30;;;;;;;8.02;36.03;100458.17;1756291;80;21141;-87
2021/04/26 09:55:55;;;;;;;1.80;0.95;;;;;;;7.93;35.39;100455.02;1789661;78;21208;-87
2021/04/26 09:58:22;;;;;;;3.25;1.10;;;;;;;8.17;33.64;100454.23;1799477;78;21372;-87
2021/04/26 10:00:47;;;;;;;6.22;1.10;;;;;;;8.02;34.03;100456.38;1797368;78;21172;-88
2021/04/26 10:03:15;;;;;;;2.22;1.02;;;;;;;8.08;33.93;100461.59;1778268;78;25158;-89
2021/04/26 10:05:46;;;;;;;3.75;1.10;;;;;;;8.16;34.29;100443.34;1779187;78;21251;-90
2021/04/26 10:08:16;;;;;;;2.33;1.05;;;;;;;8.30;34.26;100449.19;1797121;78;21188;-89
2021/04/26 10:10:45;;;;;;;2.65;1.10;;;;;;;8.05;34.41;100459.23;1794459;78;21195;-89
2021/04/26 10:13:11;;;;;;;2.00;1.20;;;;;;;8.16;34.81;100457.81;1795702;78;21147;-91
2021/04/26 10:15:39;;;;;;;4.65;1.20;;;;;;;8.20;35.46;100455.27;1801416;78;26252;-90
2021/04/26 10:18:08;;;;;;;1.05;0.80;;;;;;;7.91;36.33;100462.55;1794336;78;21191;-92
2021/04/26 10:20:39;;;;;;;2.02;1.10;;;;;;;7.88;37.03;100458.87;1779794;78;21164;-92
2021/04/26 10:23:35;;;;;;;2.25;1.00;;;;;;;7.60;37.99;100463.02;1784005;78;21361;-93
2021/04/26 10:26:04;;;;;;;2.02;1.10;;;;;;;7.83;36.29;100450.55;1784280;78;21215;-88
2021/04/26 10:28:36;;;;;;;2.55;1.07;;;;;;;7.97;33.91;100441.94;1799634;78;21176;-91
2021/04/26 10:31:14;;;;;;;2.98;1.02;;;;;;;8.24;34.35;100436.92;1795420;78;21229;-91
2021/04/26 10:34:03;;;;;;;1.85;1.07;;;;;;;8.30;34.54;100434.71;1799764;78;21686;-91
2021/04/26 10:36:56;;;;;;;4.33;1.30;;;;;;;8.24;35.23;100440.87;1799568;78;21339;-91
2021/04/26 10:39:24;;;;;;;3.27;1.47;;;;;;;8.04;35.55;100444.41;1791808;78;21205;-92
2021/04/26 10:41:59;;;;;;;2.05;1.00;;;;;;;8.03;35.59;100433.06;1798622;78;21175;-90
2021/04/26 10:44:44;;;;;;;2.80;1.20;;;;;;;8.12;35.42;100424.84;1800160;78;21437;-93
2021/04/26 10:47:36;;;;;;;1.80;1.05;;;;;;;8.07;35.37;100429.18;1799931;78;21156;-90
2021/04/26 10:50:15;;;;;;;1.72;1.05;;;;;;;8.12;34.86;100422.70;1777400;78;21571;-90
2021/04/26 10:52:45;;;;;;;2.58;1.12;;;;;;;8.24;34.46;100417.69;1790226;78;21159;-89
2021/04/26 10:55:36;;;;;;;2.15;1.10;;;;;;;8.32;33.16;100418.33;1799719;78;21087;-88
2021/04/26 10:58:05;;;;;;;2.83;1.02;;;;;;;8.29;32.04;100417.28;1795555;78;21157;-87
2021/04/26 11:00:48;;;;;;;2.55;1.20;;;;;;;8.38;31.58;100418.61;1790402;78;21188;-87
2021/04/26 11:03:26;;;;;;;2.62;1.10;;;;;;;8.24;32.56;100409.30;1789857;78;20990;-85
2021/04/26 11:05:52;;;;;;;4.15;1.35;;;;;;;8.07;32.99;100427.05;1790493;78;21181;-86
2021/04/26 11:08:48;;;;;;;2.17;1.10;;;;;;;8.29;34.56;100419.91;1789894;78;21659;-89
2021/04/26 11:11:17;;;;;;;5.03;1.22;;;;;;;8.48;34.48;100410.75;1791530;78;21231;-87
2021/04/26 11:13:55;;;;;;;2.77;1.30;;;;;;;8.51;34.42;100413.12;1793241;78;21210;-88
2021/04/26 11:16:32;;;;;;;3.02;1.30;;;;;;;8.24;34.19;100419.82;1791851;78;21317;-87
2021/04/26 11:19:09;;;;;;;3.80;1.17;;;;;;;8.33;34.19;100417.34;1797331;78;21348;-89
2021/04/26 11:21:50;;;;;;;1.52;1.02;;;;;;;8.25;33.28;100413.60;1794544;78;21543;-90
2021/04/26 11:24:30;;;;;;;2.08;1.00;;;;;;;8.34;33.51;100411.94;1793245;78;21607;-88
2021/04/26 11:27:20;;;;;;;2.08;1.00;;;;;;;8.29;33.24;100408.07;1789405;78;21220;-91
2021/04/26 11:29:55;;;;;;;1.52;1.00;;;;;;;8.53;31.35;100412.52;1790914;78;22006;-90
2021/04/26 11:32:23;;;;;;;2.25;1.00;;;;;;;8.23;31.64;100410.28;1789026;78;21160;-89
2021/04/26 11:35:00;;;;;;;1.98;0.90;;;;;;;8.44;31.60;100408.89;1789802;78;21188;-90
2021/04/26 11:37:30;;;;;;;2.58;1.20;;;;;;;8.58;32.08;100416.05;1792648;78;21663;-86
2021/04/26 11:39:56;;;;;;;2.00;1.10;;;;;;;8.51;32.71;100410.48;1797151;78;21238;-93
2021/04/26 11:42:26;;;;;;;3.12;1.20;;;;;;;8.93;32.70;100402.36;1792300;78;21949;-88